Time;durP1;ratioP1;P1;durP2;ratioP2;P2;SDS_P1;SDS_P2;PMS_P1;PMS_P2;Temp;Humidity;BMP_temperature;BMP_pressure;BME280_temperature;BME280_humidity;BME280_pressure;Samples;Min_cycle;Max_cycle;Signal;HPM_P1;HPM_P2
2023/01/21 00:01:06;;;;;;;56.88;21.17;;;-0.80;99.90;;;;;;5081589;28;20263;-57
2023/01/21 00:03:32;;;;;;;66.78;23.83;;;-0.80;99.90;;;;;;5091181;28;20036;-57
2023/01/21 00:05:57;;;;;;;71.93;24.58;;;-0.80;99.90;;;;;;5070242;28;20028;-58
2023/01/21 00:08:23;;;;;;;74.30;25.30;;;-0.80;99.90;;;;;;5110921;28;20062;-57
2023/01/21 00:10:49;;;;;;;74.63;25.33;;;-0.80;99.90;;;;;;5101919;28;20032;-58
2023/01/21 00:13:14;;;;;;;69.07;24.92;;;-0.80;99.90;;;;;;5092037;28;20100;-56
2023/01/21 00:15:40;;;;;;;65.78;22.20;;;-0.80;99.90;;;;;;5110155;28;20101;-58
2023/01/21 00:18:06;;;;;;;87.78;27.10;;;-0.70;99.90;;;;;;5093028;28;20043;-57
2023/01/21 00:20:32;;;;;;;98.53;28.98;;;-0.70;99.90;;;;;;5110217;28;20032;-57
2023/01/21 00:22:57;;;;;;;83.03;25.35;;;-0.70;99.90;;;;;;5093219;28;20071;-57
2023/01/21 00:25:23;;;;;;;84.65;23.92;;;-0.70;99.90;;;;;;5109991;28;20028;-58
2023/01/21 00:27:49;;;;;;;94.25;22.75;;;-0.70;99.90;;;;;;5112679;28;20479;-57
2023/01/21 00:30:14;;;;;;;105.55;27.83;;;-0.60;99.90;;;;;;5096600;28;20100;-58
2023/01/21 00:32:40;;;;;;;122.20;30.45;;;-0.60;99.90;;;;;;5112504;28;20023;-58
2023/01/21 00:35:06;;;;;;;134.88;30.50;;;-0.60;99.90;;;;;;5095502;28;20491;-56
2023/01/21 00:37:32;;;;;;;152.50;33.60;;;-0.60;99.90;;;;;;5112460;27;20054;-58
2023/01/21 00:39:57;;;;;;;161.90;35.88;;;-0.60;99.90;;;;;;5094282;28;20028;-58
2023/01/21 00:42:23;;;;;;;198.68;43.03;;;-0.60;99.90;;;;;;5112352;28;20034;-57
2023/01/21 00:44:48;;;;;;;184.68;41.38;;;-0.60;99.90;;;;;;5093111;28;20036;-58
2023/01/21 00:47:14;;;;;;;209.07;43.40;;;-0.60;99.90;;;;;;5112434;28;20026;-57
2023/01/21 00:49:39;;;;;;;170.77;41.08;;;-0.60;99.90;;;;;;5091415;28;20514;-58
2023/01/21 00:52:05;;;;;;;187.98;43.53;;;-0.60;99.90;;;;;;5112262;28;20016;-56
2023/01/21 00:54:31;;;;;;;175.48;39.30;;;-0.60;99.90;;;;;;5092262;28;20032;-53
2023/01/21 00:56:58;;;;;;;163.25;38.58;;;-0.70;99.90;;;;;;5112075;28;20032;-55
2023/01/21 00:59:24;;;;;;;134.55;34.63;;;-0.70;99.90;;;;;;5092125;28;20028;-56
2023/01/21 01:01:49;;;;;;;120.85;35.08;;;-0.70;99.90;;;;;;5090141;28;20028;-57
2023/01/21 01:04:15;;;;;;;127.45;33.25;;;-0.70;99.90;;;;;;5110772;28;20027;-56
2023/01/21 01:06:40;;;;;;;121.72;33.22;;;-0.60;99.90;;;;;;5082272;28;20028;-57
2023/01/21 01:09:06;;;;;;;105.65;28.92;;;-0.60;99.90;;;;;;5111126;28;20181;-56
2023/01/21 01:11:32;;;;;;;88.65;25.55;;;-0.60;99.90;;;;;;5088754;28;20615;-57
2023/01/21 01:13:58;;;;;;;80.82;25.20;;;-0.60;99.90;;;;;;5111099;28;20035;-57
2023/01/21 01:16:24;;;;;;;89.43;27.33;;;-0.50;99.90;;;;;;5090092;28;20028;-67
2023/01/21 01:18:51;;;;;;;86.63;25.55;;;-0.50;99.90;;;;;;5111017;28;20034;-67
2023/01/21 01:21:19;;;;;;;88.05;25.55;;;-0.40;99.90;;;;;;5089609;28;20115;-67
2023/01/21 01:23:46;;;;;;;77.70;23.80;;;-0.40;99.90;;;;;;5110987;28;20081;-67
2023/01/21 01:26:14;;;;;;;74.72;22.48;;;-0.40;99.90;;;;;;5089601;28;20016;-68
2023/01/21 01:28:40;;;;;;;66.75;23.83;;;-0.30;99.90;;;;;;5110950;28;20403;-67
2023/01/21 01:31:09;;;;;;;73.13;21.13;;;-0.30;99.90;;;;;;5089381;28;20090;-67
2023/01/21 01:33:35;;;;;;;57.22;19.48;;;-0.30;99.90;;;;;;5110977;28;20483;-68
2023/01/21 01:36:25;;;;;;;53.25;19.00;;;-0.20;99.90;;;;;;5089586;28;20111;-67
2023/01/21 01:38:52;;;;;;;57.17;19.35;;;-0.20;99.90;;;;;;5090379;28;20044;-67
2023/01/21 01:41:21;;;;;;;51.45;17.92;;;-0.10;99.90;;;;;;5093856;28;20055;-67
2023/01/21 01:43:54;;;;;;;49.42;16.77;;;-0.10;99.90;;;;;;5110568;28;20028;-66
2023/01/21 01:46:20;;;;;;;48.72;16.02;;;-0.10;99.90;;;;;;5084102;28;20123;-67
2023/01/21 01:48:58;;;;;;;46.13;18.63;;;-0.10;99.90;;;;;;5110651;28;20047;-67
2023/01/21 01:51:31;;;;;;;45.55;17.80;;;-0.10;99.90;;;;;;5084264;28;20032;-68
2023/01/21 01:53:58;;;;;;;45.33;16.30;;;-0.10;99.90;;;;;;5070400;28;20043;-67
2023/01/21 01:56:24;;;;;;;41.25;16.38;;;-0.10;99.90;;;;;;5092598;28;20417;-67
2023/01/21 01:58:51;;;;;;;37.35;14.25;;;-0.10;99.90;;;;;;5110012;28;20410;-67
2023/01/21 02:01:17;;;;;;;39.30;16.30;;;-0.10;99.90;;;;;;5089129;28;20430;-67
2023/01/21 02:03:49;;;;;;;39.22;14.82;;;0.00;99.90;;;;;;5109814;28;20032;-65
2023/01/21 02:06:17;;;;;;;34.55;14.35;;;0.00;99.90;;;;;;5075734;28;20314;-67
2023/01/21 02:08:45;;;;;;;34.30;14.38;;;0.00;99.90;;;;;;5110017;28;20434;-67
2023/01/21 02:11:16;;;;;;;30.25;12.25;;;0.00;99.90;;;;;;5088640;28;20024;-67
2023/01/21 02:13:44;;;;;;;28.52;11.88;;;0.10;99.90;;;;;;5070136;28;20040;-66
2023/01/21 02:16:17;;;;;;;38.22;13.23;;;0.10;99.90;;;;;;5093445;28;20062;-64
2023/01/21 02:19:15;;;;;;;32.03;12.20;;;0.10;99.90;;;;;;5069762;28;20067;-63
2023/01/21 02:21:57;;;;;;;27.75;11.10;;;0.20;99.90;;;;;;5086063;28;20028;-63
2023/01/21 02:24:41;;;;;;;27.88;11.55;;;0.20;99.90;;;;;;5069599;28;20546;-64
2023/01/21 02:27:39;;;;;;;25.80;10.88;;;0.30;99.90;;;;;;5069594;28;20039;-64
2023/01/21 02:30:23;;;;;;;31.30;11.60;;;0.30;99.90;;;;;;5076819;28;20036;-64
2023/01/21 02:33:16;;;;;;;26.98;10.93;;;0.40;99.90;;;;;;5110030;28;20074;-63
2023/01/21 02:35:53;;;;;;;24.90;9.73;;;0.40;99.90;;;;;;5086695;28;20446;-63
2023/01/21 02:38:52;;;;;;;22.00;9.60;;;0.40;99.90;;;;;;5069626;28;20083;-63
2023/01/21 02:41:41;;;;;;;23.88;9.80;;;0.40;99.90;;;;;;5082409;28;20035;-64
2023/01/21 02:44:26;;;;;;;29.23;9.63;;;0.40;99.90;;;;;;5089596;28;20036;-64
2023/01/21 02:47:06;;;;;;;19.98;8.27;;;0.50;99.90;;;;;;5087178;28;20043;-63
2023/01/21 02:49:45;;;;;;;20.85;8.45;;;0.50;99.90;;;;;;5067231;28;20495;-62
2023/01/21 02:52:22;;;;;;;25.90;10.45;;;0.50;99.90;;;;;;5068109;28;20032;-64
2023/01/21 02:54:56;;;;;;;22.50;9.65;;;0.60;99.90;;;;;;5106907;28;20031;-65
2023/01/21 02:57:31;;;;;;;21.30;9.65;;;0.50;99.90;;;;;;5109925;28;20024;-64
2023/01/21 03:00:00;;;;;;;16.55;7.00;;;0.50;99.90;;;;;;5091133;28;20019;-64
2023/01/21 03:02:50;;;;;;;24.67;10.00;;;0.50;99.90;;;;;;5109989;28;20024;-64
2023/01/21 03:05:30;;;;;;;35.08;9.85;;;0.50;99.90;;;;;;5069154;28;20036;-66
2023/01/21 03:08:02;;;;;;;22.63;9.05;;;0.50;99.90;;;;;;5068901;28;20020;-57
2023/01/21 03:10:33;;;;;;;20.17;9.23;;;0.50;99.90;;;;;;5082833;28;20057;-57
2023/01/21 03:18:58;;;;;;;19.42;7.88;;;0.60;99.90;;;;;;5109828;28;20119;-55
2023/01/21 03:21:29;;;;;;;25.33;8.45;;;0.60;99.90;;;;;;5093025;28;20023;-58
2023/01/21 03:23:58;;;;;;;23.25;8.70;;;0.70;99.90;;;;;;5109536;28;20015;-57
2023/01/21 03:26:34;;;;;;;23.60;9.68;;;0.60;99.90;;;;;;5092645;28;20016;-57
2023/01/21 03:29:06;;;;;;;23.90;9.82;;;0.70;99.90;;;;;;5109214;28;20032;-57
2023/01/21 03:31:36;;;;;;;22.52;8.38;;;0.70;99.90;;;;;;5080414;28;20122;-57
2023/01/21 03:34:05;;;;;;;25.83;10.10;;;0.70;99.90;;;;;;5109370;28;20016;-56
2023/01/21 03:36:39;;;;;;;21.77;8.43;;;0.70;99.90;;;;;;5093793;28;20402;-57
2023/01/21 03:39:16;;;;;;;28.80;9.63;;;0.70;99.90;;;;;;5109192;28;20024;-55
2023/01/21 03:41:41;;;;;;;24.50;9.18;;;0.70;99.90;;;;;;5083189;28;20307;-56
2023/01/21 03:44:07;;;;;;;25.35;9.43;;;0.70;99.90;;;;;;5089421;28;20028;-57
2023/01/21 03:46:41;;;;;;;24.20;10.35;;;0.70;99.90;;;;;;5106316;28;20104;-54
2023/01/21 03:49:19;;;;;;;29.67;12.07;;;0.70;99.90;;;;;;5109116;28;20078;-55
2023/01/21 03:51:50;;;;;;;26.50;11.07;;;0.60;99.90;;;;;;5084108;28;20034;-55
2023/01/21 03:54:16;;;;;;;32.15;11.57;;;0.60;99.90;;;;;;5068929;28;20032;-57
2023/01/21 03:56:41;;;;;;;33.10;13.15;;;0.50;99.90;;;;;;5105573;28;20035;-54
2023/01/21 03:59:07;;;;;;;33.22;12.15;;;0.60;99.90;;;;;;5089282;28;20396;-55
2023/01/21 04:01:32;;;;;;;29.08;10.68;;;0.50;99.90;;;;;;5106191;28;20053;-56
2023/01/21 04:03:58;;;;;;;28.40;11.35;;;0.50;99.90;;;;;;5109048;28;20032;-57
2023/01/21 04:06:23;;;;;;;28.35;11.95;;;0.50;99.90;;;;;;5088727;28;20031;-56
2023/01/21 04:08:49;;;;;;;25.48;9.63;;;0.40;99.90;;;;;;5109134;28;20285;-55
2023/01/21 04:11:15;;;;;;;23.42;10.07;;;0.40;99.90;;;;;;5091636;28;20498;-54
2023/01/21 04:13:40;;;;;;;23.10;11.00;;;0.40;99.90;;;;;;5108883;28;20539;-54
2023/01/21 04:16:07;;;;;;;25.25;10.57;;;0.40;99.90;;;;;;5090423;28;20157;-57
2023/01/21 04:18:32;;;;;;;27.05;12.20;;;0.40;99.90;;;;;;5108712;28;20054;-57
2023/01/21 04:20:58;;;;;;;24.15;10.82;;;0.40;99.90;;;;;;5089275;28;20039;-56
2023/01/21 04:23:24;;;;;;;24.85;11.32;;;0.40;99.90;;;;;;5108835;28;20028;-57
2023/01/21 04:25:50;;;;;;;25.90;11.45;;;0.30;99.90;;;;;;5087827;28;20028;-57
2023/01/21 04:28:17;;;;;;;21.65;10.02;;;0.30;99.90;;;;;;5109092;28;20028;-57
2023/01/21 04:30:43;;;;;;;21.27;9.55;;;0.30;99.90;;;;;;5094190;28;20047;-58
2023/01/21 04:33:08;;;;;;;20.98;9.60;;;0.30;99.90;;;;;;5087136;28;20024;-55
2023/01/21 04:35:35;;;;;;;22.27;9.60;;;0.40;99.90;;;;;;5107796;28;20077;-57
2023/01/21 04:38:00;;;;;;;20.45;8.40;;;0.40;99.90;;;;;;5087223;28;20067;-55
2023/01/21 04:40:26;;;;;;;23.30;9.20;;;0.40;99.90;;;;;;5111791;28;20104;-55
2023/01/21 04:42:51;;;;;;;20.92;8.65;;;0.40;99.90;;;;;;5090755;28;20141;-54
2023/01/21 04:45:17;;;;;;;21.60;7.43;;;0.40;99.90;;;;;;5111707;28;20085;-55
2023/01/21 04:47:43;;;;;;;16.85;7.45;;;0.40;99.90;;;;;;5090442;28;20043;-57
2023/01/21 04:50:12;;;;;;;19.50;7.90;;;0.40;99.90;;;;;;5111501;28;20036;-57
2023/01/21 04:52:37;;;;;;;19.75;8.77;;;0.30;99.90;;;;;;5090019;28;20035;-56
2023/01/21 04:55:03;;;;;;;21.63;8.82;;;0.40;99.90;;;;;;5111223;28;20048;-55
2023/01/21 04:57:29;;;;;;;24.27;9.73;;;0.30;99.90;;;;;;5090440;27;20032;-54
2023/01/21 04:59:54;;;;;;;21.77;8.93;;;0.40;99.90;;;;;;5111212;28;20085;-54
2023/01/21 05:02:20;;;;;;;19.83;8.52;;;0.40;99.90;;;;;;5090611;28;20024;-53
2023/01/21 05:04:45;;;;;;;17.63;7.82;;;0.40;99.90;;;;;;5099727;28;20499;-54
2023/01/21 05:07:11;;;;;;;18.25;7.75;;;0.40;99.90;;;;;;5102143;28;20023;-55
2023/01/21 05:09:36;;;;;;;17.05;8.57;;;0.50;99.90;;;;;;5091902;28;20039;-56
2023/01/21 05:12:03;;;;;;;18.17;8.30;;;0.50;99.90;;;;;;5108975;28;20746;-54
2023/01/21 05:14:28;;;;;;;18.58;8.20;;;0.50;99.90;;;;;;5090645;28;20058;-57
2023/01/21 05:16:54;;;;;;;18.50;8.35;;;0.50;99.90;;;;;;5108823;28;20023;-53
2023/01/21 05:19:19;;;;;;;18.83;8.05;;;0.60;99.90;;;;;;5091799;28;20081;-57
2023/01/21 05:21:45;;;;;;;22.13;8.63;;;0.70;99.90;;;;;;5111931;28;20069;-54
2023/01/21 05:24:10;;;;;;;22.10;9.40;;;0.60;99.90;;;;;;5090831;28;20092;-57
2023/01/21 05:26:36;;;;;;;18.20;9.10;;;0.60;99.90;;;;;;5111810;28;20035;-57
2023/01/21 05:29:01;;;;;;;20.45;10.27;;;0.60;99.90;;;;;;5091785;28;20213;-57
2023/01/21 05:31:27;;;;;;;20.00;9.32;;;0.60;99.90;;;;;;5109392;28;20050;-54
2023/01/21 05:33:55;;;;;;;18.00;8.93;;;0.60;99.90;;;;;;5091536;28;20048;-57
2023/01/21 05:36:20;;;;;;;25.98;10.18;;;0.60;99.90;;;;;;5090146;28;20036;-56
2023/01/21 05:38:46;;;;;;;21.65;10.93;;;0.60;99.90;;;;;;5110755;28;20024;-57
2023/01/21 05:41:11;;;;;;;19.70;10.52;;;0.60;99.90;;;;;;5089839;28;20488;-59
2023/01/21 05:43:37;;;;;;;20.85;10.18;;;0.60;99.90;;;;;;5110782;28;20035;-55
2023/01/21 05:46:02;;;;;;;20.33;10.45;;;0.60;99.90;;;;;;5089645;28;20044;-55
2023/01/21 05:48:28;;;;;;;19.42;10.23;;;0.60;99.90;;;;;;5110635;28;20067;-58
2023/01/21 05:50:54;;;;;;;21.02;11.00;;;0.60;99.90;;;;;;5089458;28;20031;-55
2023/01/21 05:53:19;;;;;;;23.17;11.45;;;0.60;99.90;;;;;;5110603;28;20039;-54
2023/01/21 05:55:45;;;;;;;21.77;11.95;;;0.60;99.90;;;;;;5089451;28;20032;-57
2023/01/21 05:58:10;;;;;;;23.80;11.80;;;0.60;99.90;;;;;;5110452;28;20039;-56
2023/01/21 06:00:36;;;;;;;21.67;10.52;;;0.60;99.90;;;;;;5089396;28;20031;-58
2023/01/21 06:03:02;;;;;;;23.58;11.57;;;0.60;99.90;;;;;;5110208;28;20032;-58
2023/01/21 06:05:28;;;;;;;24.48;11.35;;;0.70;99.90;;;;;;5091140;28;20051;-68
2023/01/21 06:07:54;;;;;;;26.25;13.15;;;0.70;99.90;;;;;;5090977;28;20074;-67
2023/01/21 06:10:20;;;;;;;27.08;11.80;;;0.60;99.90;;;;;;5108179;28;20031;-67
2023/01/21 06:12:49;;;;;;;30.50;13.27;;;0.60;99.90;;;;;;5090964;28;20077;-67
2023/01/21 06:15:15;;;;;;;27.90;13.25;;;0.60;99.90;;;;;;5098803;28;20107;-61
2023/01/21 06:17:40;;;;;;;24.73;12.27;;;0.60;99.90;;;;;;5110173;28;20114;-61
2023/01/21 06:20:07;;;;;;;27.30;12.27;;;0.60;99.90;;;;;;5085746;28;20043;-61
2023/01/21 06:22:33;;;;;;;32.25;12.57;;;0.60;99.90;;;;;;5093619;28;20463;-61
2023/01/21 06:24:58;;;;;;;27.10;12.55;;;0.60;99.90;;;;;;5107565;28;20047;-62
2023/01/21 06:27:23;;;;;;;26.10;12.07;;;0.60;99.90;;;;;;5089618;28;20705;-62
2023/01/21 06:29:49;;;;;;;28.17;14.05;;;0.60;99.90;;;;;;5106507;28;20035;-62
2023/01/21 06:32:15;;;;;;;28.85;13.18;;;0.50;99.90;;;;;;5099805;28;20066;-62
2023/01/21 06:34:41;;;;;;;25.00;12.70;;;0.50;99.90;;;;;;5088781;28;20020;-62
2023/01/21 06:37:06;;;;;;;25.15;12.88;;;0.50;99.90;;;;;;5088978;28;20036;-62
2023/01/21 06:39:32;;;;;;;25.27;12.40;;;0.50;99.90;;;;;;5109547;28;20032;-62
2023/01/21 06:41:57;;;;;;;26.73;12.15;;;0.50;99.90;;;;;;5088252;28;20020;-62
2023/01/21 06:44:22;;;;;;;25.85;11.90;;;0.50;99.90;;;;;;5109421;28;20420;-61
2023/01/21 06:46:48;;;;;;;26.27;13.68;;;0.60;99.90;;;;;;5088892;28;20138;-62
2023/01/21 06:49:13;;;;;;;29.55;14.32;;;0.50;99.90;;;;;;5106745;28;20175;-62
2023/01/21 06:51:39;;;;;;;25.60;13.05;;;0.50;99.90;;;;;;5089478;28;20024;-62
2023/01/21 06:54:04;;;;;;;27.58;12.85;;;0.50;99.90;;;;;;5087448;28;20044;-62
2023/01/21 06:56:30;;;;;;;30.75;13.63;;;0.40;99.90;;;;;;5108470;28;20037;-62
2023/01/21 06:58:55;;;;;;;27.85;13.90;;;0.40;99.90;;;;;;5087043;28;20044;-62
2023/01/21 07:01:21;;;;;;;28.95;13.52;;;0.30;99.90;;;;;;5108010;28;20096;-62
2023/01/21 07:03:46;;;;;;;27.58;14.02;;;0.40;99.90;;;;;;5087305;28;20047;-62
2023/01/21 07:06:12;;;;;;;29.90;14.50;;;0.30;99.90;;;;;;5104913;28;20042;-62
2023/01/21 07:08:37;;;;;;;39.78;15.95;;;0.30;99.90;;;;;;5087287;28;20039;-63
2023/01/21 07:11:03;;;;;;;29.13;13.32;;;0.40;99.90;;;;;;5107672;28;20038;-63
2023/01/21 07:13:28;;;;;;;26.33;14.15;;;0.40;99.90;;;;;;5087412;28;20093;-63
2023/01/21 07:16:00;;;;;;;27.23;13.80;;;0.40;99.90;;;;;;5107993;28;20027;-61
2023/01/21 07:18:27;;;;;;;30.30;14.40;;;0.40;99.90;;;;;;5087248;28;20521;-62
2023/01/21 07:20:52;;;;;;;24.23;13.45;;;0.40;99.90;;;;;;5108016;28;20027;-62
2023/01/21 07:23:18;;;;;;;28.15;13.20;;;0.40;99.90;;;;;;5086618;28;20450;-62
2023/01/21 07:25:43;;;;;;;24.50;12.73;;;0.40;99.90;;;;;;5108065;28;20070;-62
2023/01/21 07:28:09;;;;;;;28.08;12.75;;;0.50;99.90;;;;;;5087019;28;20036;-62
2023/01/21 07:30:34;;;;;;;23.13;11.68;;;0.50;99.90;;;;;;5101175;28;20458;-63
2023/01/21 07:33:07;;;;;;;27.15;13.52;;;0.60;99.90;;;;;;5103723;28;20035;-62
2023/01/21 07:35:32;;;;;;;29.27;13.13;;;0.50;99.90;;;;;;5099743;28;20058;-62
2023/01/21 07:37:57;;;;;;;24.58;12.52;;;0.60;99.90;;;;;;5097629;28;20055;-62
2023/01/21 07:40:23;;;;;;;33.47;14.60;;;0.70;99.90;;;;;;5089926;28;20039;-62
2023/01/21 07:42:52;;;;;;;23.90;12.45;;;0.70;99.90;;;;;;5106793;28;20084;-63
2023/01/21 07:45:19;;;;;;;30.90;13.57;;;0.70;99.90;;;;;;5089583;28;20039;-62
2023/01/21 07:47:44;;;;;;;24.05;12.60;;;0.70;99.90;;;;;;5106748;28;20042;-63
2023/01/21 07:50:10;;;;;;;24.30;12.90;;;0.80;99.90;;;;;;5089652;28;20400;-62
2023/01/21 07:52:36;;;;;;;26.95;12.80;;;0.80;99.90;;;;;;5101860;28;20039;-63
2023/01/21 07:55:02;;;;;;;23.38;12.05;;;0.80;99.90;;;;;;5088758;28;20503;-63
2023/01/21 07:57:27;;;;;;;22.42;12.05;;;0.80;99.90;;;;;;5091659;28;20506;-62
2023/01/21 07:59:53;;;;;;;23.52;12.95;;;0.80;99.90;;;;;;5095058;28;20036;-61
2023/01/21 08:02:18;;;;;;;25.55;12.57;;;0.90;99.90;;;;;;5092271;28;20087;-62
2023/01/21 08:04:44;;;;;;;26.55;14.52;;;0.90;99.90;;;;;;5103603;28;20035;-61
2023/01/21 08:07:09;;;;;;;29.73;13.93;;;0.90;99.90;;;;;;5088286;28;20107;-63
2023/01/21 08:09:36;;;;;;;27.08;13.65;;;0.80;99.90;;;;;;5105705;28;20039;-62
2023/01/21 08:12:03;;;;;;;28.13;14.35;;;0.80;99.90;;;;;;5078380;28;20533;-63
2023/01/21 08:14:29;;;;;;;23.52;12.30;;;0.80;99.90;;;;;;5096929;28;20036;-63
2023/01/21 08:16:54;;;;;;;26.55;13.63;;;0.90;99.90;;;;;;5088474;28;20093;-62
2023/01/21 08:19:20;;;;;;;24.10;13.48;;;0.90;99.90;;;;;;5089042;28;20020;-62
2023/01/21 08:21:45;;;;;;;29.60;13.77;;;0.90;99.90;;;;;;5103466;28;20040;-62
2023/01/21 08:24:11;;;;;;;29.50;12.95;;;0.90;99.90;;;;;;5109860;28;20024;-62
2023/01/21 08:26:36;;;;;;;23.80;12.35;;;0.90;99.90;;;;;;5089204;28;20071;-63
2023/01/21 08:29:02;;;;;;;24.67;12.95;;;0.90;99.90;;;;;;5096097;28;20132;-63
2023/01/21 08:31:27;;;;;;;23.23;12.48;;;0.90;99.90;;;;;;5088653;28;20675;-62
2023/01/21 08:33:53;;;;;;;26.92;13.88;;;1.00;99.90;;;;;;5097271;28;20032;-62
2023/01/21 08:36:19;;;;;;;22.33;12.52;;;1.00;99.90;;;;;;5075564;28;20024;-61
2023/01/21 08:38:44;;;;;;;23.58;13.52;;;1.00;99.90;;;;;;5108998;28;20743;-62
2023/01/21 08:41:10;;;;;;;26.25;12.98;;;1.00;99.90;;;;;;5081802;28;20066;-62
2023/01/21 08:43:35;;;;;;;21.27;12.55;;;1.10;99.90;;;;;;5108992;28;20479;-62
2023/01/21 08:46:01;;;;;;;22.08;11.45;;;1.10;99.90;;;;;;5082956;28;20090;-62
2023/01/21 08:48:28;;;;;;;20.52;12.07;;;1.10;99.90;;;;;;5108737;28;20055;-63
2023/01/21 08:50:58;;;;;;;20.63;11.63;;;1.10;99.90;;;;;;5090615;28;20147;-63
2023/01/21 08:53:23;;;;;;;20.50;11.15;;;1.10;99.90;;;;;;5094109;27;20024;-62
2023/01/21 08:55:49;;;;;;;23.17;12.32;;;1.10;99.90;;;;;;5083500;28;20024;-62
2023/01/21 08:58:14;;;;;;;21.35;11.20;;;1.10;99.90;;;;;;5105838;28;20060;-62
2023/01/21 09:00:40;;;;;;;21.17;11.13;;;1.20;99.90;;;;;;5105119;28;20752;-62
2023/01/21 09:03:06;;;;;;;19.02;11.00;;;1.30;99.90;;;;;;5099603;28;20043;-62
2023/01/21 09:05:32;;;;;;;20.77;10.98;;;1.40;99.90;;;;;;5091107;28;20032;-63
2023/01/21 09:07:57;;;;;;;19.30;10.90;;;1.40;99.90;;;;;;5109101;28;20035;-61
2023/01/21 09:13:08;;;;;;;25.58;13.13;;;1.40;99.90;;;;;;5076707;28;20135;-66
2023/01/21 09:15:41;;;;;;;21.58;11.60;;;1.40;99.90;;;;;;5097605;28;20059;-66
2023/01/21 09:18:07;;;;;;;20.52;11.50;;;1.50;99.90;;;;;;5089729;28;20032;-66
2023/01/21 09:20:32;;;;;;;21.67;12.38;;;1.50;99.90;;;;;;5106141;28;20047;-66
2023/01/21 09:22:58;;;;;;;25.30;12.00;;;1.50;99.90;;;;;;5089461;28;20039;-65
2023/01/21 09:25:23;;;;;;;18.98;11.30;;;1.60;99.90;;;;;;5102695;28;20565;-66
2023/01/21 09:27:49;;;;;;;21.17;11.80;;;1.60;99.90;;;;;;5108635;28;20059;-65
2023/01/21 09:30:15;;;;;;;21.65;11.40;;;1.60;99.90;;;;;;5092535;28;20062;-66
2023/01/21 09:32:41;;;;;;;23.85;12.90;;;1.70;99.90;;;;;;5109445;28;20051;-64
2023/01/21 09:35:07;;;;;;;20.05;12.32;;;1.70;99.90;;;;;;5092902;28;20421;-65
2023/01/21 09:37:33;;;;;;;22.50;11.95;;;1.80;99.90;;;;;;5093833;28;20035;-66
2023/01/21 09:39:59;;;;;;;21.77;11.02;;;1.90;99.90;;;;;;5106798;28;20034;-66
2023/01/21 09:42:28;;;;;;;23.20;11.30;;;1.90;99.90;;;;;;5109357;28;20027;-66
2023/01/21 09:44:55;;;;;;;23.73;12.38;;;2.00;99.90;;;;;;5091052;28;20524;-66
2023/01/21 09:47:36;;;;;;;21.92;12.02;;;2.00;99.90;;;;;;5108979;28;20024;-66
2023/01/21 09:50:16;;;;;;;19.42;10.82;;;2.00;99.90;;;;;;5077017;28;20111;-65
2023/01/21 09:52:51;;;;;;;24.35;12.60;;;2.00;99.90;;;;;;5108633;28;20024;-65
2023/01/21 09:55:19;;;;;;;25.67;13.38;;;2.10;99.90;;;;;;5083288;28;20031;-65
2023/01/21 09:58:20;;;;;;;28.08;13.93;;;2.10;99.90;;;;;;5108803;27;20034;-66
2023/01/21 10:01:02;;;;;;;24.55;13.05;;;2.10;99.90;;;;;;5094362;28;20102;-66
2023/01/21 10:03:43;;;;;;;24.60;13.68;;;2.20;99.90;;;;;;5068217;28;20037;-66
2023/01/21 10:06:26;;;;;;;25.63;12.20;;;2.20;99.90;;;;;;5083584;28;20115;-66
2023/01/21 10:08:58;;;;;;;27.58;13.40;;;2.30;99.90;;;;;;5082444;28;20144;-66
2023/01/21 10:11:47;;;;;;;30.80;13.85;;;2.30;99.90;;;;;;5086166;28;20036;-66
2023/01/21 10:14:41;;;;;;;28.80;13.48;;;2.40;99.90;;;;;;5084523;28;20093;-60
2023/01/21 10:17:26;;;;;;;27.63;13.35;;;2.40;99.90;;;;;;5066242;28;20032;-60
2023/01/21 10:19:56;;;;;;;23.17;11.35;;;2.40;99.90;;;;;;5078747;28;20040;-60
2023/01/21 10:22:25;;;;;;;26.45;12.80;;;2.40;99.90;;;;;;5067994;28;20514;-60
2023/01/21 10:25:03;;;;;;;25.45;12.55;;;2.40;99.90;;;;;;5107759;28;20028;-60
2023/01/21 10:27:32;;;;;;;25.27;12.48;;;2.50;99.90;;;;;;5073302;28;20064;-60
2023/01/21 10:30:05;;;;;;;21.88;12.25;;;2.60;99.90;;;;;;5097981;28;20075;-60
2023/01/21 10:32:32;;;;;;;25.60;11.35;;;2.70;99.90;;;;;;5076967;28;20115;-60
2023/01/21 10:34:57;;;;;;;19.85;10.80;;;2.70;99.90;;;;;;5098462;28;20741;-60
2023/01/21 10:37:37;;;;;;;20.27;9.45;;;2.70;99.90;;;;;;5067329;28;20036;-60
2023/01/21 10:41:02;;;;;;;22.00;10.70;;;2.80;99.90;;;;;;5089055;28;20151;-60
2023/01/21 10:43:37;;;;;;;20.40;10.15;;;2.80;99.90;;;;;;5067024;28;20048;-60
2023/01/21 10:46:29;;;;;;;21.15;10.98;;;2.80;99.90;;;;;;5092916;28;20023;-60
2023/01/21 10:49:12;;;;;;;19.90;8.90;;;2.90;99.90;;;;;;5067289;28;20396;-61
2023/01/21 10:51:59;;;;;;;17.95;9.63;;;2.90;99.60;;;;;;5089791;28;20027;-60
2023/01/21 10:54:50;;;;;;;17.33;8.45;;;2.90;99.90;;;;;;5087801;28;20127;-60
2023/01/21 10:57:28;;;;;;;16.13;8.13;;;2.90;99.90;;;;;;5065603;28;20025;-60
2023/01/21 10:59:58;;;;;;;15.70;8.07;;;2.90;99.90;;;;;;5069623;28;20056;-60
2023/01/21 11:02:31;;;;;;;18.60;8.30;;;3.00;99.90;;;;;;5087612;28;20028;-60
2023/01/21 11:05:01;;;;;;;17.65;8.45;;;3.10;98.90;;;;;;5095791;28;20028;-60
2023/01/21 11:07:35;;;;;;;15.15;8.02;;;3.10;98.30;;;;;;5086968;28;20438;-60
2023/01/21 11:10:03;;;;;;;17.75;8.15;;;3.20;98.10;;;;;;5069104;28;20024;-60
2023/01/21 11:12:29;;;;;;;15.35;8.18;;;3.20;97.60;;;;;;5088097;28;20441;-60
2023/01/21 11:15:01;;;;;;;12.77;7.38;;;3.20;98.00;;;;;;5109100;28;20033;-60
2023/01/21 11:17:33;;;;;;;18.92;9.57;;;3.20;98.30;;;;;;5087730;28;20028;-60
2023/01/21 11:20:00;;;;;;;16.15;8.55;;;3.20;98.50;;;;;;5069390;28;20025;-61
2023/01/21 11:22:30;;;;;;;16.65;9.57;;;3.30;99.00;;;;;;5088023;28;20519;-61
2023/01/21 11:24:55;;;;;;;16.80;9.18;;;3.30;98.70;;;;;;5109603;28;20032;-61
2023/01/21 11:27:31;;;;;;;14.10;7.57;;;3.30;99.00;;;;;;5088202;28;20063;-61
2023/01/21 11:29:57;;;;;;;14.02;7.53;;;3.30;98.30;;;;;;5071077;28;20115;-61
2023/01/21 11:32:24;;;;;;;15.73;7.55;;;3.30;99.10;;;;;;5089412;28;20115;-61
2023/01/21 11:35:20;;;;;;;14.27;7.72;;;3.40;98.70;;;;;;5109064;28;20084;-60
2023/01/21 11:37:46;;;;;;;15.63;8.20;;;3.40;97.70;;;;;;5069239;28;20024;-61
2023/01/21 11:40:17;;;;;;;12.82;7.68;;;3.40;97.20;;;;;;5106217;28;20035;-60
2023/01/21 11:42:52;;;;;;;12.95;6.93;;;3.30;98.20;;;;;;5109570;28;20114;-60
2023/01/21 11:45:31;;;;;;;11.60;7.10;;;3.40;98.00;;;;;;5069347;28;20077;-60
2023/01/21 11:47:58;;;;;;;14.52;7.38;;;3.40;98.00;;;;;;5111607;28;20526;-61
2023/01/21 11:50:29;;;;;;;12.57;6.93;;;3.40;97.70;;;;;;5093682;28;20068;-60
2023/01/21 11:53:07;;;;;;;13.82;7.47;;;3.40;97.90;;;;;;5113845;28;20747;-60
2023/01/21 11:55:52;;;;;;;12.77;6.97;;;3.30;96.80;;;;;;5094951;28;20022;-61
2023/01/21 11:58:38;;;;;;;10.95;6.68;;;3.40;96.80;;;;;;5113754;28;20020;-61
2023/01/21 12:01:07;;;;;;;10.68;6.15;;;3.30;96.30;;;;;;5085245;28;20043;-60
2023/01/21 12:03:41;;;;;;;12.18;6.70;;;3.40;95.50;;;;;;5113564;28;20032;-60
2023/01/21 12:06:08;;;;;;;14.52;6.78;;;3.40;95.80;;;;;;5082933;28;20499;-60
2023/01/21 12:08:36;;;;;;;14.85;7.55;;;3.50;95.80;;;;;;5093357;28;20024;-60
2023/01/21 12:11:05;;;;;;;10.73;6.30;;;3.50;94.60;;;;;;5110917;28;20088;-60
2023/01/21 12:13:42;;;;;;;13.13;7.30;;;3.40;94.80;;;;;;5113375;28;20024;-61
2023/01/21 12:16:19;;;;;;;12.60;6.55;;;3.40;94.10;;;;;;5087003;28;20020;-60
2023/01/21 12:19:05;;;;;;;10.88;6.10;;;3.50;93.90;;;;;;5072548;28;20035;-60
2023/01/21 12:21:50;;;;;;;9.57;5.00;;;3.40;93.00;;;;;;5102364;28;20031;-60
2023/01/21 12:24:40;;;;;;;9.38;5.43;;;3.50;93.10;;;;;;5072579;28;20060;-61
2023/01/21 12:27:36;;;;;;;9.73;5.13;;;3.50;93.10;;;;;;5086834;28;20169;-60
2023/01/21 12:30:20;;;;;;;10.88;5.53;;;3.50;92.80;;;;;;5075740;28;20035;-60
2023/01/21 12:32:50;;;;;;;9.23;5.00;;;3.50;92.90;;;;;;5072218;28;20028;-61
2023/01/21 12:35:22;;;;;;;11.27;5.78;;;3.50;92.20;;;;;;5091583;28;20449;-60
2023/01/21 12:38:10;;;;;;;9.82;5.38;;;3.50;91.10;;;;;;5112825;28;20415;-61
2023/01/21 12:40:45;;;;;;;11.27;5.03;;;3.50;91.50;;;;;;5069755;28;20099;-60
2023/01/21 12:43:39;;;;;;;11.48;4.82;;;3.60;91.40;;;;;;5112826;28;20100;-61
2023/01/21 12:46:31;;;;;;;8.55;4.95;;;3.50;91.00;;;;;;5085648;28;20796;-60
2023/01/21 12:49:06;;;;;;;8.40;4.85;;;3.50;90.60;;;;;;5071936;28;20068;-60
2023/01/21 12:51:38;;;;;;;10.02;4.88;;;3.50;90.90;;;;;;5092964;28;20016;-61
2023/01/21 12:54:23;;;;;;;7.53;4.38;;;3.50;90.10;;;;;;5072047;28;20040;-61
2023/01/21 12:57:11;;;;;;;8.38;4.47;;;3.60;90.80;;;;;;5084011;28;20023;-61
2023/01/21 12:59:42;;;;;;;9.73;4.50;;;3.50;90.50;;;;;;5071199;28;20036;-61
2023/01/21 13:02:17;;;;;;;7.45;4.30;;;3.50;90.50;;;;;;5086523;28;20051;-60